Time;durP1;ratioP1;P1;durP2;ratioP2;P2;SDS_P1;SDS_P2;PMS_P1;PMS_P2;Temp;Humidity;BMP_temperature;BMP_pressure;BME280_temperature;BME280_humidity;BME280_pressure;Samples;Min_cycle;Max_cycle;Signal;HPM_P1;HPM_P2
2022/07/28 00:00:52;;;;;;;5.05;3.03;;;;;;;17.23;53.49;93795.81;5015526;28;20041;-77
2022/07/28 00:03:19;;;;;;;6.05;3.10;;;;;;;17.14;53.87;93795.78;5018700;28;20048;-75
2022/07/28 00:05:46;;;;;;;5.10;3.30;;;;;;;17.11;54.01;93793.94;4995240;28;20380;-77
2022/07/28 00:08:15;;;;;;;5.38;3.00;;;;;;;17.16;53.80;93785.00;5012720;28;20104;-77
2022/07/28 00:10:42;;;;;;;5.85;3.30;;;;;;;17.04;53.99;93789.47;5006569;28;20057;-73
2022/07/28 00:13:09;;;;;;;7.28;3.50;;;;;;;17.09;53.87;93788.84;4999968;28;20038;-76
2022/07/28 00:15:35;;;;;;;5.47;3.45;;;;;;;17.03;53.61;93785.16;5011223;28;20073;-76
2022/07/28 00:18:02;;;;;;;5.87;3.27;;;;;;;17.04;53.81;93792.22;5043944;28;20034;-69
2022/07/28 00:20:29;;;;;;;5.25;3.35;;;;;;;17.10;53.71;93787.66;5012099;28;20045;-70
2022/07/28 00:22:56;;;;;;;8.07;3.60;;;;;;;17.01;53.89;93782.06;5012121;28;20041;-72
2022/07/28 00:25:23;;;;;;;4.82;3.10;;;;;;;17.08;53.76;93778.22;5012637;28;20449;-70
2022/07/28 00:27:51;;;;;;;5.65;3.35;;;;;;;17.05;53.60;93777.16;5011429;28;20068;-70
2022/07/28 00:30:18;;;;;;;6.17;3.30;;;;;;;17.05;53.77;93774.38;5012470;28;20050;-70
2022/07/28 00:32:45;;;;;;;4.90;3.40;;;;;;;17.08;53.58;93778.22;5011681;28;20052;-70
2022/07/28 00:35:12;;;;;;;5.38;3.42;;;;;;;17.00;53.94;93766.66;5013525;28;20053;-73
2022/07/28 00:37:41;;;;;;;4.85;3.47;;;;;;;16.87;54.26;93779.91;5011599;28;20045;-69
2022/07/28 00:40:08;;;;;;;6.72;3.55;;;;;;;16.96;54.10;93774.34;5010975;28;20049;-75
2022/07/28 00:42:35;;;;;;;6.87;3.57;;;;;;;16.89;54.35;93769.91;4996499;28;20094;-75
2022/07/28 00:45:03;;;;;;;5.15;3.42;;;;;;;16.89;54.30;93775.44;4999860;28;20095;-69
2022/07/28 00:47:30;;;;;;;5.35;3.50;;;;;;;16.91;54.30;93770.22;5043319;28;20054;-75
2022/07/28 00:50:03;;;;;;;7.22;3.60;;;;;;;16.85;54.73;93774.81;5011787;28;20056;-73
2022/07/28 00:52:31;;;;;;;6.13;4.10;;;;;;;16.84;54.99;93769.72;5011713;28;20056;-73
2022/07/28 00:54:58;;;;;;;5.60;3.63;;;;;;;16.74;55.07;93766.94;5010451;28;20101;-73
2022/07/28 00:57:25;;;;;;;5.25;3.60;;;;;;;16.77;55.03;93762.47;5011718;28;20095;-72
2022/07/28 00:59:51;;;;;;;5.85;3.70;;;;;;;16.72;55.48;93761.06;5011274;28;20042;-79
2022/07/28 01:02:19;;;;;;;8.10;3.80;;;;;;;16.71;55.59;93767.06;5022961;28;20053;-79
2022/07/28 01:04:46;;;;;;;6.13;3.65;;;;;;;16.61;55.89;93754.44;5013412;28;20045;-77
2022/07/28 01:07:28;;;;;;;7.03;4.10;;;;;;;16.58;56.38;93758.91;5015773;28;20041;-76
2022/07/28 01:10:22;;;;;;;6.85;3.97;;;;;;;16.65;55.93;93761.34;5014855;28;21654;-77
2022/07/28 01:12:55;;;;;;;6.40;3.72;;;;;;;16.62;56.39;93756.75;5016619;28;20129;-77
2022/07/28 01:15:43;;;;;;;9.07;4.05;;;;;;;16.54;56.60;93749.94;5013409;28;20129;-77
2022/07/28 01:18:20;;;;;;;6.10;3.88;;;;;;;16.48;56.96;93749.78;5013212;28;20750;-77
2022/07/28 01:20:51;;;;;;;5.40;3.80;;;;;;;16.44;57.23;93751.16;5013876;28;20050;-78
2022/07/28 01:23:30;;;;;;;8.98;5.80;;;;;;;16.41;57.41;93739.00;5013284;28;20054;-77
2022/07/28 01:26:20;;;;;;;7.70;4.50;;;;;;;16.44;57.29;93743.63;5009975;28;20057;-75
2022/07/28 01:29:13;;;;;;;7.40;4.13;;;;;;;16.43;57.42;93744.06;5011044;28;20056;-79
2022/07/28 01:31:43;;;;;;;7.85;4.57;;;;;;;16.45;57.53;93745.16;5011412;28;20103;-75
2022/07/28 01:34:17;;;;;;;6.20;3.87;;;;;;;16.38;57.74;93751.00;5013095;28;20071;-76
2022/07/28 01:36:54;;;;;;;6.13;4.00;;;;;;;16.31;58.26;93738.19;5011886;28;20054;-74
2022/07/28 01:39:27;;;;;;;6.25;4.03;;;;;;;16.35;58.24;93736.03;5013631;28;20552;-76
2022/07/28 01:41:57;;;;;;;6.20;4.20;;;;;;;16.35;58.42;93730.50;5019648;28;20033;-76
2022/07/28 01:44:26;;;;;;;6.85;4.30;;;;;;;16.37;58.46;93730.81;5019217;28;20056;-77
2022/07/28 01:46:56;;;;;;;6.67;4.30;;;;;;;16.29;58.68;93731.56;5022977;28;20822;-78
2022/07/28 01:49:26;;;;;;;5.88;4.40;;;;;;;16.27;58.94;93737.56;5016512;28;20072;-77
2022/07/28 01:51:55;;;;;;;7.18;4.57;;;;;;;16.21;59.25;93727.56;5010349;28;20719;-76
2022/07/28 01:54:27;;;;;;;7.93;4.32;;;;;;;16.30;58.77;93736.66;5013762;28;20441;-77
2022/07/28 01:56:56;;;;;;;44.75;28.98;;;;;;;16.33;59.00;93732.19;5013707;28;20069;-75
2022/07/28 01:59:25;;;;;;;8.10;5.53;;;;;;;16.31;58.99;93740.19;5013370;28;20054;-76
2022/07/28 02:01:53;;;;;;;8.88;4.40;;;;;;;16.28;59.08;93730.00;5012887;28;20041;-76
2022/07/28 02:04:22;;;;;;;6.47;4.32;;;;;;;16.28;58.97;93732.78;5014619;28;20056;-76
2022/07/28 02:06:51;;;;;;;6.13;4.40;;;;;;;16.20;59.43;93724.03;5011700;28;20050;-78
2022/07/28 02:09:21;;;;;;;7.30;4.43;;;;;;;16.17;59.71;93722.16;5011084;28;20048;-76
2022/07/28 02:11:51;;;;;;;7.17;4.53;;;;;;;16.20;59.43;93723.22;4997224;28;20042;-76
2022/07/28 02:14:21;;;;;;;6.93;4.63;;;;;;;16.14;59.77;93718.31;5008612;28;20060;-76
2022/07/28 02:17:17;;;;;;;6.57;4.32;;;;;;;16.16;59.54;93715.09;5009982;28;20038;-75
2022/07/28 02:19:46;;;;;;;7.15;4.32;;;;;;;16.13;59.55;93715.97;5010163;28;20414;-77
2022/07/28 02:22:15;;;;;;;6.03;4.30;;;;;;;16.10;59.68;93714.91;5011235;28;20057;-72
2022/07/28 02:24:44;;;;;;;6.67;4.40;;;;;;;16.12;59.64;93725.53;5009856;28;20042;-75
2022/07/28 02:27:18;;;;;;;7.38;4.68;;;;;;;16.17;59.23;93717.38;5010179;28;20088;-71
2022/07/28 02:29:56;;;;;;;9.45;4.53;;;;;;;16.15;59.42;93719.06;4990428;28;20403;-70
2022/07/28 02:32:37;;;;;;;6.90;4.22;;;;;;;16.16;59.32;93713.06;4989916;28;20053;-71
2022/07/28 02:35:29;;;;;;;9.75;4.80;;;;;;;16.15;59.15;93719.06;4994344;28;20050;-70
2022/07/28 02:38:06;;;;;;;6.17;4.47;;;;;;;16.06;59.84;93713.50;4989192;28;20422;-67
2022/07/28 02:40:35;;;;;;;6.82;4.50;;;;;;;16.01;59.90;93712.09;4990448;28;20081;-65
2022/07/28 02:43:07;;;;;;;7.35;4.53;;;;;;;16.04;59.94;93711.19;4990503;28;20056;-65
2022/07/28 02:45:39;;;;;;;7.05;4.50;;;;;;;16.07;59.97;93706.75;4990094;28;20050;-66
2022/07/28 02:48:09;;;;;;;8.82;4.85;;;;;;;16.03;60.38;93698.56;4990315;28;20060;-66
2022/07/28 02:50:39;;;;;;;7.93;4.97;;;;;;;15.96;60.74;93705.16;4990247;28;20435;-66
2022/07/28 02:53:07;;;;;;;7.90;4.88;;;;;;;15.95;60.78;93700.09;4990265;28;20042;-65
2022/07/28 02:55:46;;;;;;;8.55;5.10;;;;;;;15.99;61.09;93706.25;4990202;28;20072;-65
2022/07/28 02:58:14;;;;;;;7.35;5.10;;;;;;;15.94;61.84;93698.56;4990029;28;20046;-65
2022/07/28 03:00:43;;;;;;;8.63;5.57;;;;;;;15.97;61.68;93701.16;4988784;28;20053;-65
2022/07/28 03:03:10;;;;;;;8.07;5.90;;;;;;;15.95;61.66;93700.84;5002967;28;20038;-65
2022/07/28 03:05:40;;;;;;;7.93;5.22;;;;;;;15.95;61.98;93706.38;4988564;28;20046;-65
2022/07/28 03:08:07;;;;;;;8.55;6.07;;;;;;;15.88;62.73;93686.53;4989946;28;20072;-65
2022/07/28 03:10:34;;;;;;;9.15;6.20;;;;;;;15.80;63.11;93699.13;4989943;28;20054;-64
2022/07/28 03:13:07;;;;;;;8.63;6.22;;;;;;;15.78;63.24;93710.63;4989989;28;20431;-70
2022/07/28 03:15:35;;;;;;;8.53;5.90;;;;;;;15.86;62.81;93708.38;4977371;28;20050;-68
2022/07/28 03:18:04;;;;;;;10.45;6.20;;;;;;;15.87;63.27;93710.66;4989937;28;20042;-66
2022/07/28 03:20:32;;;;;;;9.68;6.18;;;;;;;15.87;62.99;93702.34;4989818;28;20410;-69
2022/07/28 03:22:59;;;;;;;8.02;6.10;;;;;;;15.87;63.15;93704.34;4990281;28;20122;-65
2022/07/28 03:25:45;;;;;;;8.90;6.50;;;;;;;15.75;63.95;93711.53;4989679;28;20100;-63
2022/07/28 03:28:18;;;;;;;9.50;6.30;;;;;;;15.75;64.11;93706.78;4997690;28;20060;-65
2022/07/28 03:30:53;;;;;;;10.90;6.97;;;;;;;15.77;64.08;93709.88;5006797;28;20045;-70
2022/07/28 03:33:19;;;;;;;10.98;7.00;;;;;;;15.67;64.45;93708.22;5010752;28;20046;-64
2022/07/28 03:35:50;;;;;;;10.35;7.00;;;;;;;15.72;64.25;93717.94;5013061;28;20056;-63
2022/07/28 03:38:24;;;;;;;8.98;6.60;;;;;;;15.70;64.53;93723.16;5009346;28;20433;-63
2022/07/28 03:40:54;;;;;;;10.63;7.10;;;;;;;15.71;64.54;93722.69;5008441;28;20113;-71
2022/07/28 03:43:24;;;;;;;10.25;7.30;;;;;;;15.69;64.77;93724.38;4998762;28;20046;-64
2022/07/28 03:45:51;;;;;;;11.40;7.20;;;;;;;15.68;64.88;93729.16;5006518;28;20049;-64
2022/07/28 03:48:20;;;;;;;9.52;7.03;;;;;;;15.63;64.99;93729.72;5009527;28;20042;-64
2022/07/28 03:50:47;;;;;;;10.88;7.20;;;;;;;15.61;65.33;93729.41;5010476;28;20048;-64
2022/07/28 03:53:25;;;;;;;8.50;6.73;;;;;;;15.44;65.52;93731.63;5012561;28;20042;-64
2022/07/28 03:55:52;;;;;;;8.90;6.75;;;;;;;15.36;65.70;93735.88;5012110;28;20387;-64
2022/07/28 03:58:21;;;;;;;9.50;6.88;;;;;;;15.36;66.17;93733.88;5012770;28;20048;-65
2022/07/28 04:00:52;;;;;;;10.02;7.15;;;;;;;15.37;66.36;93731.88;5012167;28;20580;-65
2022/07/28 04:03:19;;;;;;;10.65;7.78;;;;;;;15.32;66.96;93735.22;5026226;28;20042;-65
2022/07/28 04:06:06;;;;;;;10.10;6.27;;;;;;;15.05;66.80;93733.03;5011771;28;21334;-63
2022/07/28 04:08:33;;;;;;;9.40;6.75;;;;;;;15.06;66.71;93729.81;5012356;28;20048;-64
2022/07/28 04:10:59;;;;;;;10.27;7.20;;;;;;;15.09;67.43;93734.47;5012331;28;20643;-67
2022/07/28 04:13:26;;;;;;;10.50;6.70;;;;;;;14.93;67.76;93734.63;5012086;28;20046;-61
2022/07/28 04:15:53;;;;;;;11.27;7.20;;;;;;;14.95;67.59;93732.19;5012590;28;20386;-73
2022/07/28 04:18:19;;;;;;;9.27;6.73;;;;;;;15.01;67.87;93724.09;5011123;28;20068;-65
2022/07/28 04:20:46;;;;;;;10.70;7.47;;;;;;;15.05;67.96;93736.59;5011717;28;20777;-65
2022/07/28 04:23:13;;;;;;;11.27;6.85;;;;;;;15.06;67.74;93732.59;5012035;28;20073;-65
2022/07/28 04:25:40;;;;;;;10.68;6.80;;;;;;;14.99;67.92;93727.34;5011876;28;20062;-64
2022/07/28 04:28:06;;;;;;;10.27;7.20;;;;;;;14.74;69.18;93733.72;5011572;28;20048;-68
2022/07/28 04:30:33;;;;;;;11.37;6.70;;;;;;;15.02;68.39;93739.47;5040919;28;20104;-64
2022/07/28 04:33:05;;;;;;;12.30;7.20;;;;;;;15.11;68.06;93731.22;5012740;28;20042;-65
2022/07/28 04:35:33;;;;;;;11.90;7.60;;;;;;;15.14;68.03;93725.59;5018027;28;20410;-65
2022/07/28 04:38:00;;;;;;;12.70;7.57;;;;;;;15.06;68.27;93724.28;5011751;28;20038;-64
2022/07/28 04:40:27;;;;;;;9.48;6.70;;;;;;;15.06;68.17;93740.13;5011644;28;20046;-62
2022/07/28 04:42:54;;;;;;;9.50;6.70;;;;;;;14.92;68.75;93738.63;5012056;28;20045;-64
2022/07/28 04:45:21;;;;;;;10.73;7.20;;;;;;;15.11;68.23;93736.75;5012145;28;20050;-65
2022/07/28 04:47:48;;;;;;;12.65;7.70;;;;;;;15.16;68.49;93739.72;5011511;28;20103;-67
2022/07/28 04:50:17;;;;;;;9.73;6.97;;;;;;;14.88;68.84;93735.22;5011725;28;20046;-66
2022/07/28 04:52:48;;;;;;;12.27;7.30;;;;;;;14.58;70.09;93738.16;5011130;28;20058;-66
2022/07/28 04:55:15;;;;;;;11.70;7.47;;;;;;;14.80;69.77;93739.44;5011632;28;20409;-67
2022/07/28 04:57:42;;;;;;;9.30;7.03;;;;;;;14.69;69.86;93737.03;5009753;28;20104;-67
2022/07/28 05:00:13;;;;;;;9.95;7.43;;;;;;;14.85;69.52;93739.66;5010700;28;20056;-64
2022/07/28 05:02:41;;;;;;;11.07;7.28;;;;;;;14.94;69.32;93739.72;5006106;28;20037;-65
2022/07/28 05:05:09;;;;;;;10.23;7.38;;;;;;;15.19;68.67;93738.03;5010513;28;20380;-68
2022/07/28 05:07:37;;;;;;;10.47;7.37;;;;;;;15.11;68.76;93745.84;5009268;28;20399;-68
2022/07/28 05:10:05;;;;;;;10.18;7.40;;;;;;;15.22;68.73;93733.63;5010539;28;20052;-65
2022/07/28 05:12:32;;;;;;;13.25;7.65;;;;;;;15.11;69.39;93750.56;5010284;28;20320;-66
2022/07/28 05:14:59;;;;;;;11.05;7.60;;;;;;;15.08;69.50;93743.97;5010216;28;20042;-64
2022/07/28 05:17:26;;;;;;;12.30;8.27;;;;;;;15.18;69.63;93739.28;5010613;28;20382;-66
2022/07/28 05:19:53;;;;;;;14.17;8.80;;;;;;;15.39;69.06;93740.50;5009572;28;20798;-64
2022/07/28 05:22:20;;;;;;;12.10;8.32;;;;;;;14.39;72.22;93741.94;5010034;28;20038;-65
2022/07/28 05:24:46;;;;;;;10.98;8.10;;;;;;;14.74;71.09;93742.75;5009924;28;20065;-65
2022/07/28 05:27:13;;;;;;;14.00;8.18;;;;;;;15.03;69.71;93741.00;5010055;28;20072;-65
2022/07/28 05:29:40;;;;;;;14.40;8.38;;;;;;;14.72;70.11;93736.91;5010677;28;20053;-67
2022/07/28 05:32:13;;;;;;;26.57;7.60;;;;;;;14.71;69.62;93738.16;4997769;28;20057;-66
2022/07/28 05:34:43;;;;;;;17.35;7.60;;;;;;;14.88;68.95;93744.25;5010937;28;20056;-65
2022/07/28 05:37:10;;;;;;;14.93;6.80;;;;;;;14.93;67.87;93740.16;5009519;28;20038;-65
2022/07/28 05:39:37;;;;;;;11.15;6.60;;;;;;;15.30;66.57;93726.63;5010058;28;20046;-68
2022/07/28 05:42:05;;;;;;;9.80;6.32;;;;;;;15.35;66.10;93735.13;5010074;28;20049;-68
2022/07/28 05:44:31;;;;;;;12.60;6.43;;;;;;;15.37;66.06;93729.91;4996905;28;20053;-65
2022/07/28 05:47:04;;;;;;;15.13;6.55;;;;;;;15.50;65.15;93727.06;5010640;28;20071;-71
2022/07/28 05:49:31;;;;;;;12.02;6.03;;;;;;;16.74;61.96;93730.13;5010213;28;20045;-70
2022/07/28 05:51:58;;;;;;;9.75;6.53;;;;;;;18.63;55.09;93722.75;5011156;28;20054;-66
2022/07/28 05:54:25;;;;;;;11.63;5.80;;;;;;;20.39;50.31;93721.19;4995179;28;20046;-63
2022/07/28 05:56:52;;;;;;;12.50;6.03;;;;;;;20.69;48.38;93733.03;5009760;28;20824;-70
2022/07/28 05:59:19;;;;;;;10.50;5.80;;;;;;;21.46;46.43;93725.38;5010546;28;20054;-64
2022/07/28 06:01:46;;;;;;;8.43;5.70;;;;;;;21.58;46.10;93732.59;5012986;28;20052;-65
2022/07/28 06:04:12;;;;;;;10.52;5.53;;;;;;;21.25;46.70;93730.97;5021893;28;20045;-70
2022/07/28 06:06:54;;;;;;;10.88;5.85;;;;;;;22.27;44.60;93734.75;5009577;28;20659;-65
2022/07/28 06:09:21;;;;;;;9.57;6.10;;;;;;;21.35;46.83;93734.38;5010544;28;20661;-65
2022/07/28 06:11:49;;;;;;;12.43;6.00;;;;;;;21.91;45.74;93725.78;5009974;28;20049;-67
2022/07/28 06:14:16;;;;;;;11.35;5.30;;;;;;;23.38;42.15;93712.75;5009139;28;20054;-65
2022/07/28 06:16:49;;;;;;;10.93;5.50;;;;;;;24.56;40.35;93720.56;5009488;28;20050;-68
2022/07/28 06:19:17;;;;;;;8.48;5.00;;;;;;;26.30;37.14;93707.78;5010059;28;20049;-65
2022/07/28 06:21:44;;;;;;;10.27;5.33;;;;;;;26.04;36.90;93709.00;5009810;28;20495;-65
2022/07/28 06:24:10;;;;;;;11.57;5.53;;;;;;;26.36;35.91;93713.34;4995458;28;20042;-69
2022/07/28 06:26:38;;;;;;;10.55;5.50;;;;;;;27.10;34.38;93703.69;5009017;28;20436;-65
2022/07/28 06:29:10;;;;;;;6.80;5.00;;;;;;;27.21;34.32;93710.47;5010177;28;20049;-65
2022/07/28 06:31:37;;;;;;;9.65;4.97;;;;;;;28.42;31.68;93707.03;5009674;28;20042;-65
2022/07/28 06:34:05;;;;;;;7.43;4.90;;;;;;;26.97;34.58;93712.00;5016423;28;20449;-69
2022/07/28 06:36:32;;;;;;;7.43;5.13;;;;;;;26.05;36.44;93718.94;5016697;28;20050;-69
2022/07/28 06:38:59;;;;;;;12.45;5.70;;;;;;;27.36;34.72;93719.28;5008521;28;20046;-66
2022/07/28 06:41:26;;;;;;;9.55;5.32;;;;;;;26.63;35.91;93725.69;5010753;28;20046;-67
2022/07/28 06:43:53;;;;;;;7.43;5.38;;;;;;;26.68;34.80;93722.81;5009502;28;20772;-65
2022/07/28 06:46:19;;;;;;;7.37;5.50;;;;;;;27.65;34.05;93716.88;5009897;28;20419;-65
2022/07/28 06:48:46;;;;;;;7.28;5.80;;;;;;;26.00;36.35;93721.81;5009528;28;20083;-66
2022/07/28 06:51:17;;;;;;;7.85;5.90;;;;;;;26.22;36.06;93718.84;5010081;28;20050;-70
2022/07/28 06:53:46;;;;;;;8.10;5.28;;;;;;;29.08;31.48;93720.53;5009313;28;20054;-64
2022/07/28 06:56:13;;;;;;;9.23;5.40;;;;;;;30.07;30.59;93720.31;5009792;28;20394;-64
2022/07/28 06:58:41;;;;;;;9.50;5.80;;;;;;;27.47;33.26;93716.31;5009617;28;20050;-64
2022/07/28 07:01:14;;;;;;;10.27;6.30;;;;;;;25.97;37.32;93717.22;4996092;28;20065;-67
2022/07/28 07:03:42;;;;;;;7.78;5.90;;;;;;;27.34;35.16;93712.66;5015890;28;20046;-64
2022/07/28 07:06:09;;;;;;;11.02;6.10;;;;;;;25.65;37.94;93720.44;5009457;28;20101;-64
2022/07/28 07:08:37;;;;;;;10.63;5.88;;;;;;;26.52;35.81;93715.22;5008143;28;20046;-64
2022/07/28 07:11:03;;;;;;;9.67;5.60;;;;;;;27.15;35.00;93723.88;5024549;28;20056;-72
2022/07/28 07:13:31;;;;;;;8.90;5.68;;;;;;;28.17;34.17;93715.63;5009235;28;20072;-65
2022/07/28 07:15:59;;;;;;;6.55;5.40;;;;;;;29.50;31.55;93711.50;5009553;28;20037;-67
2022/07/28 07:18:26;;;;;;;9.35;5.63;;;;;;;26.38;36.37;93722.00;5009344;28;20062;-64
2022/07/28 07:20:53;;;;;;;8.20;5.57;;;;;;;29.44;32.00;93711.63;5008680;28;20796;-65
2022/07/28 07:23:20;;;;;;;6.90;5.20;;;;;;;29.86;30.58;93715.38;5009361;28;20414;-64
2022/07/28 07:25:47;;;;;;;7.22;5.35;;;;;;;29.18;31.52;93715.97;5012239;28;20058;-64
2022/07/28 07:28:14;;;;;;;8.90;5.60;;;;;;;29.51;31.69;93710.19;5012945;28;20044;-64
2022/07/28 07:30:40;;;;;;;7.40;5.18;;;;;;;30.67;29.62;93708.06;5012938;28;20116;-65
2022/07/28 07:33:07;;;;;;;8.25;5.80;;;;;;;29.72;31.15;93705.41;4999311;28;20034;-68
2022/07/28 07:35:36;;;;;;;7.07;4.60;;;;;;;32.34;28.19;93705.22;5014064;28;20034;-66
2022/07/28 07:38:03;;;;;;;6.88;5.10;;;;;;;31.94;27.93;93708.47;5010277;28;20049;-68
2022/07/28 07:40:30;;;;;;;10.32;5.40;;;;;;;28.73;32.46;93704.72;5013217;28;20483;-65
2022/07/28 07:42:57;;;;;;;7.03;5.07;;;;;;;28.19;34.21;93700.97;5013945;28;20410;-65
2022/07/28 07:45:25;;;;;;;10.95;5.38;;;;;;;29.89;30.51;93705.03;5013070;28;20068;-65
2022/07/28 07:47:51;;;;;;;7.47;4.87;;;;;;;30.30;30.88;93703.59;5012225;28;21571;-64
2022/07/28 07:50:18;;;;;;;7.60;4.80;;;;;;;32.00;28.23;93694.91;5012316;28;20418;-69
2022/07/28 07:52:45;;;;;;;7.03;5.50;;;;;;;29.23;32.32;93700.97;5012655;28;20041;-66
2022/07/28 07:55:12;;;;;;;7.40;5.13;;;;;;;32.22;27.47;93701.97;5012829;28;20042;-65
2022/07/28 07:57:39;;;;;;;7.25;5.10;;;;;;;32.07;28.34;93692.66;5012099;28;20483;-65
2022/07/28 08:00:07;;;;;;;7.73;4.70;;;;;;;33.77;25.78;93694.13;5012747;28;20388;-65
2022/07/28 08:02:53;;;;;;;7.15;4.82;;;;;;;32.26;27.72;93690.25;5022181;28;20336;-64
2022/07/28 08:05:20;;;;;;;6.40;5.60;;;;;;;31.00;29.75;93702.88;5012562;28;20060;-65
2022/07/28 08:08:00;;;;;;;8.35;5.15;;;;;;;34.61;24.67;93690.03;5011765;28;20848;-66
2022/07/28 08:10:27;;;;;;;5.00;4.40;;;;;;;37.23;21.52;93681.97;5011862;28;20241;-64
2022/07/28 08:12:54;;;;;;;7.30;4.50;;;;;;;36.35;22.55;93695.16;5012460;28;20410;-65
2022/07/28 08:15:21;;;;;;;7.15;4.80;;;;;;;32.69;26.58;93687.84;5012456;28;20038;-69
2022/07/28 08:17:47;;;;;;;6.43;4.60;;;;;;;37.20;21.23;93688.88;5012225;28;20044;-65
2022/07/28 08:20:14;;;;;;;6.15;4.35;;;;;;;36.63;21.69;93690.19;5012320;28;20410;-65
2022/07/28 08:22:52;;;;;;;7.03;4.00;;;;;;;38.11;20.04;93682.78;5012109;28;20406;-64
2022/07/28 08:25:19;;;;;;;5.57;4.17;;;;;;;36.41;22.31;93684.19;5011805;28;20411;-64
2022/07/28 08:27:47;;;;;;;6.72;4.10;;;;;;;36.10;22.98;93690.31;5011533;28;20053;-65
2022/07/28 08:30:14;;;;;;;8.85;3.97;;;;;;;38.07;20.21;93679.63;5012205;28;20060;-65
2022/07/28 08:32:48;;;;;;;5.15;3.97;;;;;;;38.91;19.51;93682.69;5012077;28;20037;-69
2022/07/28 08:35:24;;;;;;;7.43;4.40;;;;;;;34.87;23.84;93685.88;5014200;28;20398;-65
2022/07/28 08:38:02;;;;;;;8.40;5.10;;;;;;;36.28;22.38;93670.28;5008950;28;21012;-65
2022/07/28 08:40:31;;;;;;;5.68;4.70;;;;;;;29.44;30.79;93681.28;5003636;28;20050;-64
2022/07/28 08:43:33;;;;;;;6.93;5.07;;;;;;;29.96;31.21;93681.72;5012095;28;20056;-65
2022/07/28 08:46:03;;;;;;;6.85;4.47;;;;;;;33.81;25.27;93678.16;4999051;28;20045;-65
2022/07/28 08:48:33;;;;;;;6.65;4.50;;;;;;;35.19;23.75;93682.22;5011269;28;20060;-65
2022/07/28 08:51:10;;;;;;;7.40;4.33;;;;;;;35.09;24.06;93683.41;5012129;28;20042;-65
2022/07/28 08:53:39;;;;;;;6.47;4.00;;;;;;;33.83;24.76;93675.50;5011289;28;20045;-64
2022/07/28 08:56:08;;;;;;;5.10;3.70;;;;;;;36.52;22.37;93669.38;5011490;28;20049;-65
2022/07/28 08:58:36;;;;;;;5.15;4.30;;;;;;;36.31;22.33;93678.44;5009773;28;20506;-65
2022/07/28 09:01:07;;;;;;;7.75;4.22;;;;;;;36.08;22.90;93675.09;5011810;28;20045;-65
2022/07/28 09:03:35;;;;;;;5.67;3.80;;;;;;;38.34;20.72;93670.06;5013074;28;20050;-65
2022/07/28 09:06:03;;;;;;;6.72;3.95;;;;;;;37.90;20.50;93671.94;5010529;28;20083;-65
2022/07/28 09:08:29;;;;;;;4.88;3.80;;;;;;;36.41;22.11;93677.75;5010803;28;20056;-63
2022/07/28 09:10:56;;;;;;;6.13;4.30;;;;;;;34.94;23.91;93670.06;5011340;28;20048;-65
2022/07/28 09:13:23;;;;;;;5.78;3.90;;;;;;;35.35;23.29;93670.63;5010065;28;20144;-66
2022/07/28 09:15:50;;;;;;;5.20;4.10;;;;;;;33.48;25.38;93660.22;5011051;28;20042;-65
2022/07/28 09:18:17;;;;;;;5.15;4.30;;;;;;;31.59;27.95;93661.81;5011260;28;20716;-67
2022/07/28 09:20:44;;;;;;;8.57;4.68;;;;;;;30.12;30.19;93674.13;5011050;28;20050;-68
2022/07/28 09:23:12;;;;;;;9.73;5.32;;;;;;;31.87;28.08;93663.78;5011355;28;20038;-64
2022/07/28 09:26:09;;;;;;;13.27;4.30;;;;;;;32.58;26.35;93669.84;5010151;28;20555;-68
2022/07/28 09:28:55;;;;;;;7.27;3.53;;;;;;;35.66;22.51;93665.38;5010895;28;20052;-65
2022/07/28 09:31:25;;;;;;;6.53;4.20;;;;;;;34.50;24.40;93664.88;5011149;28;20107;-65
2022/07/28 09:33:59;;;;;;;5.78;4.30;;;;;;;32.00;26.84;93658.00;5015072;28;20391;-65
2022/07/28 09:36:40;;;;;;;7.43;3.97;;;;;;;33.17;25.96;93660.31;5016735;28;20501;-66
2022/07/28 09:39:08;;;;;;;5.07;3.75;;;;;;;32.25;26.35;93666.75;5010433;28;20060;-65
2022/07/28 09:42:07;;;;;;;5.07;3.57;;;;;;;31.05;27.45;93670.03;5010769;28;20042;-65
2022/07/28 09:44:33;;;;;;;6.55;3.60;;;;;;;31.73;25.83;93656.75;4990506;28;20051;-68
2022/07/28 09:47:21;;;;;;;6.18;3.90;;;;;;;33.09;24.90;93656.75;5004110;28;20067;-65
2022/07/28 09:49:48;;;;;;;6.15;4.00;;;;;;;31.61;26.89;93659.94;5009833;28;20061;-66
2022/07/28 09:52:34;;;;;;;5.70;3.60;;;;;;;33.92;22.95;93650.59;4999968;28;20133;-65
2022/07/28 09:55:00;;;;;;;4.93;3.10;;;;;;;32.82;24.24;93650.69;5006246;28;22114;-65
2022/07/28 09:57:29;;;;;;;4.45;3.47;;;;;;;31.49;25.82;93653.06;5001550;28;20061;-65
2022/07/28 09:59:59;;;;;;;5.65;3.47;;;;;;;31.40;26.20;93651.50;4991256;28;20390;-65
2022/07/28 10:02:30;;;;;;;5.00;3.50;;;;;;;32.00;24.60;93649.50;4992879;28;20096;-63
2022/07/28 10:04:59;;;;;;;6.78;3.90;;;;;;;32.12;25.65;93646.31;4988834;28;20058;-64
2022/07/28 10:07:30;;;;;;;5.63;3.70;;;;;;;34.37;23.13;93643.88;4990658;28;20061;-64
2022/07/28 10:10:02;;;;;;;5.15;3.60;;;;;;;33.04;23.07;93640.59;4993883;28;20113;-66
2022/07/28 10:12:31;;;;;;;5.22;3.80;;;;;;;32.51;23.51;93641.41;4970830;28;20039;-64
2022/07/28 10:17:57;;;;;;;5.55;4.00;;;;;;;31.39;26.59;93644.31;4970573;28;20842;-67
2022/07/28 10:20:25;;;;;;;6.00;3.60;;;;;;;33.40;23.69;93646.06;4970876;28;20047;-64
2022/07/28 10:23:01;;;;;;;5.13;3.72;;;;;;;34.07;22.50;93633.44;4983458;28;20593;-65
2022/07/28 10:25:31;;;;;;;5.78;3.75;;;;;;;35.03;22.50;93637.28;4970634;28;20411;-65
2022/07/28 10:27:59;;;;;;;6.53;3.60;;;;;;;33.20;24.27;93638.50;4971146;28;20050;-64
2022/07/28 10:30:33;;;;;;;5.97;3.58;;;;;;;31.82;24.36;93644.88;4971132;28;20047;-65
2022/07/28 10:33:04;;;;;;;4.20;3.37;;;;;;;33.73;22.90;93634.00;4970477;28;20073;-66
2022/07/28 10:35:32;;;;;;;4.75;3.30;;;;;;;33.30;22.87;93639.44;4987534;28;20120;-69
2022/07/28 10:38:20;;;;;;;4.70;3.40;;;;;;;34.06;22.03;93631.16;4970772;28;20035;-67
2022/07/28 10:40:49;;;;;;;4.88;3.38;;;;;;;35.87;19.86;93630.63;4970841;28;20057;-65
2022/07/28 10:43:17;;;;;;;4.35;3.00;;;;;;;34.58;19.94;93637.81;4971220;28;20072;-64
2022/07/28 10:45:46;;;;;;;5.17;3.60;;;;;;;31.32;26.14;93649.97;4970677;28;20053;-64
2022/07/28 10:48:32;;;;;;;5.93;4.20;;;;;;;31.69;26.75;93636.50;4970522;28;20534;-65
2022/07/28 10:50:59;;;;;;;7.15;4.15;;;;;;;30.35;28.63;93634.75;4969693;28;20100;-64
2022/07/28 10:53:44;;;;;;;5.95;4.18;;;;;;;32.67;25.41;93634.41;4970732;28;20047;-67
2022/07/28 10:56:27;;;;;;;8.05;4.10;;;;;;;33.00;24.20;93629.63;4970032;28;20766;-69
2022/07/28 10:59:20;;;;;;;4.93;4.27;;;;;;;32.63;23.88;93636.88;4970071;28;20316;-64
2022/07/28 11:01:51;;;;;;;5.35;3.40;;;;;;;34.09;22.11;93629.97;4978292;28;20042;-65
2022/07/28 11:04:39;;;;;;;4.72;3.60;;;;;;;33.94;22.08;93630.84;4986574;28;20053;-64
2022/07/28 11:07:11;;;;;;;5.68;4.03;;;;;;;32.46;25.78;93637.44;4998425;28;20053;-65
2022/07/28 11:09:38;;;;;;;5.85;4.15;;;;;;;30.06;28.11;93643.16;4993952;28;20046;-66
2022/07/28 11:12:05;;;;;;;7.57;4.53;;;;;;;29.58;28.53;93645.25;4991574;28;20061;-65
2022/07/28 11:14:36;;;;;;;5.32;4.10;;;;;;;29.84;28.73;93633.13;4987791;28;20050;-69
2022/07/28 11:17:05;;;;;;;6.20;4.60;;;;;;;29.13;29.35;93637.72;4974626;28;20043;-69
2022/07/28 11:19:42;;;;;;;6.18;4.13;;;;;;;29.15;29.50;93629.47;4973853;28;20062;-65
2022/07/28 11:22:29;;;;;;;5.63;4.25;;;;;;;30.43;27.94;93629.16;4983641;28;20501;-65
2022/07/28 11:25:01;;;;;;;5.67;4.40;;;;;;;31.02;26.73;93626.53;4977714;28;20047;-66
2022/07/28 11:27:49;;;;;;;5.22;4.03;;;;;;;32.08;26.13;93623.97;4973781;28;20058;-66
2022/07/28 11:30:17;;;;;;;5.18;3.75;;;;;;;30.16;28.45;93628.50;4974566;28;20514;-65
2022/07/28 11:32:53;;;;;;;5.03;4.10;;;;;;;30.18;28.81;93632.28;4973915;28;20053;-65
2022/07/28 11:35:31;;;;;;;6.85;4.40;;;;;;;29.00;29.74;93624.34;4990642;28;20046;-69
2022/07/28 11:38:01;;;;;;;5.57;4.30;;;;;;;29.72;28.58;93620.56;4973595;28;20047;-65
2022/07/28 11:40:54;;;;;;;5.93;4.22;;;;;;;30.33;27.88;93620.41;4987163;28;20073;-68
2022/07/28 11:43:21;;;;;;;6.07;4.45;;;;;;;29.05;29.53;93623.47;4974036;28;20416;-68
2022/07/28 11:46:03;;;;;;;6.78;4.35;;;;;;;29.36;28.32;93621.06;4973075;28;20682;-65
2022/07/28 11:48:46;;;;;;;6.30;4.40;;;;;;;29.47;28.17;93617.22;4973452;28;20050;-68
2022/07/28 11:51:14;;;;;;;6.70;4.40;;;;;;;30.59;27.43;93613.03;4974208;28;20093;-65